Time;durP1;ratioP1;P1;durP2;ratioP2;P2;SDS_P1;SDS_P2;PMS_P1;PMS_P2;Temp;Humidity;BMP_temperature;BMP_pressure;BME280_temperature;BME280_humidity;BME280_pressure;Samples;Min_cycle;Max_cycle;Signal;HPM_P1;HPM_P2
2023/01/25 00:01:03;;;;;;;120.60;55.70;;;;;;;3.41;82.59;102416.37;129707;1278;115311;-68
2023/01/25 00:04:06;;;;;;;117.70;56.50;;;;;;;3.41;82.62;102411.06;130095;1260;114725;-68
2023/01/25 00:07:08;;;;;;;127.80;61.20;;;;;;;3.41;82.61;102406.13;129884;1257;114812;-68
2023/01/25 00:10:10;;;;;;;114.90;54.90;;;;;;;3.39;82.58;102401.33;129808;1257;114760;-66
2023/01/25 00:13:12;;;;;;;124.90;59.10;;;;;;;3.38;82.46;102399.20;129934;1275;114645;-68
2023/01/25 00:16:15;;;;;;;130.10;59.40;;;;;;;3.38;82.62;102397.45;129851;1254;127981;-69
2023/01/25 00:19:18;;;;;;;125.80;59.10;;;;;;;3.39;82.78;102391.09;129942;1257;115212;-69
2023/01/25 00:22:20;;;;;;;123.70;58.10;;;;;;;3.40;82.72;102396.23;130060;1258;114790;-68
2023/01/25 00:25:25;;;;;;;120.60;56.00;;;;;;;3.36;82.38;102392.63;130086;1277;115201;-69
2023/01/25 00:28:28;;;;;;;113.40;50.60;;;;;;;3.34;82.63;102392.96;130073;1260;115328;-69
2023/01/25 00:31:33;;;;;;;108.30;50.00;;;;;;;3.34;82.57;102389.79;130038;1257;114770;-68
2023/01/25 00:34:44;;;;;;;;;;;;;;;3.35;82.58;102389.25;129793;1277;128443;-68
2023/01/25 00:37:48;;;;;;;110.20;52.20;;;;;;;3.32;82.55;102382.17;129715;1277;115006;-66
2023/01/25 00:40:51;;;;;;;121.60;56.10;;;;;;;3.31;82.42;102379.67;129597;1277;114896;-67
2023/01/25 00:43:53;;;;;;;119.40;53.30;;;;;;;3.29;82.43;102379.65;129998;1254;114725;-68
2023/01/25 00:46:56;;;;;;;120.50;55.20;;;;;;;3.30;82.63;102377.38;129936;1277;115236;-66
2023/01/25 00:49:58;;;;;;;123.30;56.00;;;;;;;3.33;82.72;102374.05;130061;1273;114699;-67
2023/01/25 00:53:00;;;;;;;117.20;55.50;;;;;;;3.36;82.82;102373.58;129673;1259;127425;-68
2023/01/25 00:56:03;;;;;;;121.10;56.60;;;;;;;3.36;82.69;102370.91;129886;1277;115093;-67
2023/01/25 00:59:06;;;;;;;119.80;52.40;;;;;;;3.37;82.63;102372.15;129957;1257;114744;-68
2023/01/25 01:02:08;;;;;;;119.00;55.10;;;;;;;3.36;82.58;102372.31;130020;1257;114696;-68
2023/01/25 01:05:11;;;;;;;114.70;55.70;;;;;;;3.34;82.44;102363.64;129853;1271;114979;-67
2023/01/25 01:08:14;;;;;;;117.20;54.50;;;;;;;3.38;82.65;102353.80;129973;1255;114811;-65
2023/01/25 01:11:16;;;;;;;115.10;52.70;;;;;;;3.43;82.66;102354.23;130007;1257;114731;-67
2023/01/25 01:14:20;;;;;;;119.10;55.20;;;;;;;3.45;82.58;102343.30;129964;1277;115318;-66
2023/01/25 01:17:23;;;;;;;110.90;54.10;;;;;;;3.49;82.61;102334.70;129921;1257;114807;-70
2023/01/25 01:20:26;;;;;;;114.00;53.90;;;;;;;3.56;82.67;102332.31;129981;1273;114734;-66
2023/01/25 01:23:28;;;;;;;117.90;56.20;;;;;;;3.60;82.80;102327.77;130100;1277;114850;-66
2023/01/25 01:26:30;;;;;;;95.50;43.80;;;;;;;3.63;82.78;102324.10;129816;1277;114737;-67
2023/01/25 01:29:33;;;;;;;110.40;50.70;;;;;;;3.66;82.67;102322.17;129687;1264;128715;-67
2023/01/25 01:32:36;;;;;;;108.50;49.50;;;;;;;3.65;82.44;102323.75;129922;1270;114925;-67
2023/01/25 01:35:38;;;;;;;115.90;54.40;;;;;;;3.63;82.25;102324.09;130019;1256;115469;-69
2023/01/25 01:38:42;;;;;;;111.90;53.60;;;;;;;3.63;82.29;102321.63;129966;1253;114665;-69
2023/01/25 01:41:44;;;;;;;112.50;54.70;;;;;;;3.61;82.27;102321.23;129882;1274;114713;-67
2023/01/25 01:44:47;;;;;;;121.50;55.00;;;;;;;3.60;82.31;102317.17;129931;1277;114742;-67
2023/01/25 01:47:50;;;;;;;125.20;57.30;;;;;;;3.55;82.03;102315.16;130075;1259;128938;-68
2023/01/25 01:50:55;;;;;;;108.70;51.10;;;;;;;3.51;82.18;102310.35;129927;1259;114745;-68
2023/01/25 01:54:02;;;;;;;116.10;54.20;;;;;;;3.52;82.37;102306.64;129976;1257;114860;-68
2023/01/25 01:57:05;;;;;;;105.70;48.40;;;;;;;3.53;82.42;102306.30;129600;1261;115555;-68
2023/01/25 02:00:13;;;;;;;115.40;53.50;;;;;;;3.56;82.53;102307.04;129864;1268;114719;-69
2023/01/25 02:03:16;;;;;;;114.40;54.30;;;;;;;3.57;82.51;102303.88;129494;1277;129731;-67
2023/01/25 02:06:33;;;;;;;110.00;50.90;;;;;;;3.60;82.54;102299.86;129979;1256;114824;-69
2023/01/25 02:09:36;;;;;;;87.40;39.60;;;;;;;3.65;82.40;102298.31;129923;1258;114696;-69
2023/01/25 02:12:40;;;;;;;90.10;42.90;;;;;;;3.67;82.28;102303.27;129999;1256;114711;-63
2023/01/25 02:15:49;;;;;;;81.60;40.90;;;;;;;3.70;82.48;102298.91;129680;1278;114807;-68
2023/01/25 02:18:53;;;;;;;83.90;39.60;;;;;;;3.73;82.50;102298.40;129587;1270;127759;-69
2023/01/25 02:21:57;;;;;;;68.00;34.70;;;;;;;3.77;82.28;102297.39;129755;1277;115343;-69
2023/01/25 02:25:08;;;;;;;53.60;28.90;;;;;;;3.76;82.25;102297.73;129687;1258;114867;-69
2023/01/25 02:28:31;;;;;;;60.30;28.20;;;;;;;3.75;82.20;102302.50;129945;1257;114715;-69
2023/01/25 02:31:33;;;;;;;51.40;26.30;;;;;;;3.73;81.87;102301.05;129982;1277;114684;-68
2023/01/25 02:34:36;;;;;;;50.00;26.50;;;;;;;3.69;81.71;102299.43;129859;1257;114817;-69
2023/01/25 02:37:38;;;;;;;70.70;32.90;;;;;;;3.66;81.68;102294.08;129898;1277;114747;-70
2023/01/25 02:41:10;;;;;;;88.40;42.50;;;;;;;3.64;81.73;102296.89;129970;1254;114843;-67
2023/01/25 02:44:19;;;;;;;97.50;45.80;;;;;;;3.60;81.66;102298.27;129843;1260;114752;-68
2023/01/25 02:47:22;;;;;;;115.60;51.20;;;;;;;3.54;81.56;102295.17;129594;1253;114829;-68
2023/01/25 02:50:25;;;;;;;112.70;54.00;;;;;;;3.47;81.69;102294.94;130025;1257;114731;-67
2023/01/25 02:53:27;;;;;;;113.60;55.80;;;;;;;3.39;81.74;102291.12;129988;1277;114818;-67
2023/01/25 02:56:30;;;;;;;109.30;51.10;;;;;;;3.35;82.02;102290.19;129987;1277;115247;-67
2023/01/25 02:59:32;;;;;;;119.30;52.60;;;;;;;3.37;82.11;102295.16;130086;1256;114810;-69
2023/01/25 03:02:35;;;;;;;108.40;52.10;;;;;;;3.36;81.95;102294.60;130064;1254;114763;-65
2023/01/25 03:05:38;;;;;;;106.50;50.20;;;;;;;3.37;82.13;102293.21;130004;1270;114785;-66
2023/01/25 03:08:41;;;;;;;105.60;50.60;;;;;;;3.36;81.95;102288.98;130068;1277;115347;-67
2023/01/25 03:11:43;;;;;;;108.20;53.20;;;;;;;3.33;82.06;102283.64;129887;1277;114734;-64
2023/01/25 03:14:46;;;;;;;110.40;52.10;;;;;;;3.33;82.05;102281.52;129861;1257;114827;-64
2023/01/25 03:17:48;;;;;;;117.00;52.10;;;;;;;3.31;82.09;102277.07;129961;1278;114761;-65
2023/01/25 03:20:51;;;;;;;104.10;51.60;;;;;;;3.28;82.10;102275.80;129885;1256;115430;-64
2023/01/25 03:23:56;;;;;;;102.60;49.40;;;;;;;3.23;81.96;102275.90;129961;1259;114728;-64
2023/01/25 03:27:12;;;;;;;94.50;42.00;;;;;;;3.17;81.97;102271.77;129934;1257;114808;-65
2023/01/25 03:30:14;;;;;;;93.70;45.80;;;;;;;3.15;82.02;102272.63;129893;1278;127782;-68
2023/01/25 03:33:16;;;;;;;91.80;45.00;;;;;;;3.15;81.97;102261.85;129870;1255;115195;-67
2023/01/25 03:36:19;;;;;;;103.00;48.10;;;;;;;3.17;82.31;102261.19;129943;1259;114882;-65
2023/01/25 03:39:21;;;;;;;102.00;46.90;;;;;;;3.23;82.47;102262.48;129910;1259;115176;-66
2023/01/25 03:42:24;;;;;;;105.40;49.00;;;;;;;3.21;82.01;102257.17;129919;1278;114715;-65
2023/01/25 03:45:26;;;;;;;108.30;52.10;;;;;;;3.21;82.26;102256.65;129940;1275;114793;-67
2023/01/25 03:48:29;;;;;;;110.70;50.20;;;;;;;3.20;82.20;102253.09;129865;1278;115420;-67
2023/01/25 03:51:31;;;;;;;115.70;54.90;;;;;;;3.20;82.39;102255.75;129921;1255;114740;-66
2023/01/25 03:54:33;;;;;;;79.60;36.40;;;;;;;3.21;82.33;102255.58;129592;1263;115279;-63
2023/01/25 03:57:36;;;;;;;63.10;31.40;;;;;;;3.19;82.21;102253.45;129861;1259;114795;-65
2023/01/25 04:00:38;;;;;;;50.50;22.70;;;;;;;3.20;81.94;102247.45;129956;1259;114719;-66
2023/01/25 04:03:41;;;;;;;57.30;27.70;;;;;;;3.24;81.98;102243.95;129976;1255;115246;-67
2023/01/25 04:06:43;;;;;;;96.60;45.40;;;;;;;3.27;81.96;102243.82;129861;1270;114801;-66
2023/01/25 04:09:45;;;;;;;106.00;51.50;;;;;;;3.26;82.01;102239.74;129715;1259;114722;-68
2023/01/25 04:12:47;;;;;;;105.80;52.00;;;;;;;3.25;81.86;102240.44;129890;1278;114807;-66
2023/01/25 04:15:50;;;;;;;113.20;52.00;;;;;;;3.25;82.19;102236.02;129513;1264;115266;-64
2023/01/25 04:18:52;;;;;;;116.40;55.40;;;;;;;3.28;82.27;102230.94;130121;1256;114760;-65
2023/01/25 04:21:55;;;;;;;119.10;56.40;;;;;;;3.31;82.36;102231.33;130013;1256;114837;-66
2023/01/25 04:24:57;;;;;;;119.90;55.80;;;;;;;3.33;82.48;102223.04;129929;1278;114719;-65
2023/01/25 04:27:59;;;;;;;104.70;50.00;;;;;;;3.37;82.49;102217.63;129925;1278;114713;-66
2023/01/25 04:31:02;;;;;;;130.00;61.70;;;;;;;3.43;82.38;102216.27;129600;1257;115174;-67
2023/01/25 04:34:05;;;;;;;115.50;54.20;;;;;;;3.46;82.37;102214.72;129946;1275;114722;-66
2023/01/25 04:37:07;;;;;;;124.60;52.10;;;;;;;3.50;82.43;102209.11;129904;1259;114814;-67
2023/01/25 04:40:10;;;;;;;105.50;51.20;;;;;;;3.55;82.45;102207.92;129909;1259;114717;-67
2023/01/25 04:43:13;;;;;;;120.40;53.90;;;;;;;3.57;82.27;102211.48;129560;1275;114741;-68
2023/01/25 04:46:16;;;;;;;109.20;51.90;;;;;;;3.57;82.07;102215.53;129582;1266;114918;-70
2023/01/25 04:49:18;;;;;;;102.30;44.10;;;;;;;3.57;82.08;102213.77;129836;1278;114759;-70
2023/01/25 04:52:20;;;;;;;82.20;38.80;;;;;;;3.49;81.62;102206.98;129813;1278;115351;-70
2023/01/25 04:55:23;;;;;;;47.40;25.40;;;;;;;3.44;81.72;102205.34;129930;1267;114658;-68
2023/01/25 04:58:25;;;;;;;47.70;24.90;;;;;;;3.40;81.37;102204.75;129876;1259;114732;-65
2023/01/25 05:01:27;;;;;;;49.20;22.90;;;;;;;3.34;81.12;102200.63;129647;1258;114774;-66
2023/01/25 05:04:30;;;;;;;45.10;22.00;;;;;;;3.30;81.31;102198.48;129706;1256;114785;-66
2023/01/25 05:07:32;;;;;;;47.70;23.50;;;;;;;3.29;81.08;102196.52;129683;1259;114878;-66
2023/01/25 05:10:34;;;;;;;52.00;25.80;;;;;;;3.32;81.53;102196.91;129737;1259;114703;-66
2023/01/25 05:13:36;;;;;;;54.00;26.90;;;;;;;3.38;81.61;102196.45;129858;1275;114759;-67
2023/01/25 05:16:38;;;;;;;51.20;24.10;;;;;;;3.39;81.31;102188.85;129671;1261;115205;-68
2023/01/25 05:19:41;;;;;;;49.10;23.80;;;;;;;3.37;81.24;102187.24;129890;1259;114792;-66
2023/01/25 05:22:43;;;;;;;45.30;22.40;;;;;;;3.34;81.06;102186.15;129939;1278;114729;-66
2023/01/25 05:29:08;;;;;;;62.80;28.70;;;;;;;3.30;81.20;102182.06;129489;1261;114837;-68
2023/01/25 05:32:16;;;;;;;48.90;23.90;;;;;;;3.27;81.14;102182.71;129550;1278;126759;-69
2023/01/25 05:35:19;;;;;;;44.70;22.50;;;;;;;3.25;81.01;102178.63;129590;1278;114747;-69
2023/01/25 05:38:21;;;;;;;56.90;28.00;;;;;;;3.27;81.09;102174.77;129891;1257;114725;-64
2023/01/25 05:41:24;;;;;;;55.10;28.80;;;;;;;3.31;81.40;102172.17;129842;1278;114736;-66
2023/01/25 05:44:26;;;;;;;57.00;28.00;;;;;;;3.38;81.45;102168.71;129973;1275;114738;-65
2023/01/25 05:47:29;;;;;;;55.10;27.90;;;;;;;3.45;81.60;102167.55;129656;1277;115000;-65
2023/01/25 05:50:31;;;;;;;63.60;29.30;;;;;;;3.48;81.32;102174.29;129735;1277;115555;-66
2023/01/25 05:53:33;;;;;;;70.90;36.30;;;;;;;3.47;81.27;102166.52;130034;1277;114731;-65
2023/01/25 05:56:36;;;;;;;64.90;30.70;;;;;;;3.49;81.36;102164.58;130207;1259;114711;-66
2023/01/25 05:59:38;;;;;;;77.20;38.00;;;;;;;3.49;81.18;102164.23;130053;1258;114757;-65
2023/01/25 06:02:41;;;;;;;93.60;40.80;;;;;;;3.49;81.34;102164.75;129932;1258;114782;-65
2023/01/25 06:05:44;;;;;;;82.80;40.10;;;;;;;3.48;81.25;102161.74;129920;1253;114750;-67
2023/01/25 06:08:47;;;;;;;78.60;41.00;;;;;;;3.46;81.18;102152.73;130014;1254;115389;-66
2023/01/25 06:11:49;;;;;;;86.30;41.30;;;;;;;3.47;81.23;102149.20;130143;1254;115224;-65
2023/01/25 06:14:52;;;;;;;78.80;37.50;;;;;;;3.48;81.32;102148.85;129554;1278;115196;-68
2023/01/25 06:17:55;;;;;;;65.80;32.60;;;;;;;3.46;80.88;102149.36;129840;1259;114885;-64
2023/01/25 06:20:59;;;;;;;69.00;32.80;;;;;;;3.43;81.05;102147.03;129940;1257;114722;-66
2023/01/25 06:24:01;;;;;;;50.40;25.50;;;;;;;3.43;81.01;102146.16;129834;1272;114851;-66
2023/01/25 06:27:04;;;;;;;56.30;25.90;;;;;;;3.38;80.71;102150.52;129788;1272;114750;-65
2023/01/25 06:30:07;;;;;;;53.30;25.70;;;;;;;3.39;81.09;102152.48;129876;1278;115400;-68
2023/01/25 06:33:09;;;;;;;47.20;22.90;;;;;;;3.42;81.09;102150.21;129878;1278;115254;-65
2023/01/25 06:36:13;;;;;;;44.20;20.70;;;;;;;3.43;81.10;102153.57;129713;1260;114931;-66
2023/01/25 06:39:16;;;;;;;42.20;20.90;;;;;;;3.43;80.88;102154.97;129918;1278;114712;-65
2023/01/25 06:42:18;;;;;;;56.90;25.10;;;;;;;3.43;80.72;102158.18;129890;1261;114843;-65
2023/01/25 06:45:21;;;;;;;57.10;28.60;;;;;;;3.40;80.58;102149.13;129858;1259;114760;-64
2023/01/25 06:48:23;;;;;;;54.70;25.70;;;;;;;3.39;80.69;102149.47;129948;1267;115310;-65
2023/01/25 06:51:26;;;;;;;57.40;27.60;;;;;;;3.41;80.90;102145.42;129981;1257;115205;-69
2023/01/25 06:54:28;;;;;;;52.00;25.90;;;;;;;3.42;80.87;102137.84;129812;1259;115289;-66
2023/01/25 06:57:31;;;;;;;45.70;22.00;;;;;;;3.44;80.84;102136.81;129935;1256;114712;-67
2023/01/25 07:00:33;;;;;;;48.60;24.00;;;;;;;3.43;80.84;102133.98;129932;1278;115199;-68
2023/01/25 07:03:36;;;;;;;46.00;24.70;;;;;;;3.44;80.72;102135.04;129821;1278;114833;-69
2023/01/25 07:06:39;;;;;;;47.50;22.80;;;;;;;3.42;80.53;102129.17;129986;1278;115099;-68
2023/01/25 07:09:41;;;;;;;46.20;22.50;;;;;;;3.39;80.57;102131.45;129928;1278;115343;-67
2023/01/25 07:12:43;;;;;;;52.00;23.10;;;;;;;3.40;80.77;102132.34;129836;1259;114703;-67
2023/01/25 07:15:58;;;;;;;41.30;19.80;;;;;;;3.44;80.79;102129.02;129513;1259;114878;-69
2023/01/25 07:19:10;;;;;;;43.40;22.20;;;;;;;3.43;80.46;102123.19;129739;1259;114673;-66
2023/01/25 07:22:12;;;;;;;115.30;55.20;;;;;;;3.46;80.58;102123.59;129801;1278;114810;-68
2023/01/25 07:25:14;;;;;;;96.30;48.00;;;;;;;3.45;80.46;102122.86;129709;1278;114737;-69
2023/01/25 07:28:16;;;;;;;71.40;35.50;;;;;;;3.43;80.49;102121.26;129676;1257;114836;-67
2023/01/25 07:31:20;;;;;;;39.00;20.60;;;;;;;3.44;80.67;102122.48;129636;1278;115338;-65
2023/01/25 07:34:22;;;;;;;39.90;19.10;;;;;;;3.45;80.60;102122.88;129638;1259;114837;-64
2023/01/25 07:37:26;;;;;;;47.80;26.40;;;;;;;3.45;80.44;102121.80;129894;1275;114730;-67
2023/01/25 07:40:29;;;;;;;44.40;22.00;;;;;;;3.45;80.30;102115.45;129870;1275;126483;-67
2023/01/25 07:43:31;;;;;;;44.00;21.10;;;;;;;3.44;80.43;102116.13;129739;1278;114726;-69
2023/01/25 07:46:34;;;;;;;61.10;31.00;;;;;;;3.43;80.27;102115.41;129898;1278;114969;-69
2023/01/25 07:49:36;;;;;;;43.00;19.90;;;;;;;3.40;80.10;102110.44;130001;1259;116470;-66
2023/01/25 07:52:38;;;;;;;33.60;17.40;;;;;;;3.43;80.33;102105.16;129611;1259;114887;-68
2023/01/25 07:55:41;;;;;;;43.30;21.80;;;;;;;3.49;80.45;102104.88;129887;1259;114865;-70
2023/01/25 07:58:44;;;;;;;51.10;26.80;;;;;;;3.53;80.29;102103.49;130000;1278;114790;-69
2023/01/25 08:01:47;;;;;;;46.70;24.70;;;;;;;3.55;80.16;102101.58;130053;1253;115190;-68
2023/01/25 08:04:50;;;;;;;42.50;22.80;;;;;;;3.57;80.38;102097.88;130139;1274;114809;-68
2023/01/25 08:07:52;;;;;;;46.30;23.00;;;;;;;3.56;80.10;102096.10;129714;1276;116430;-68
2023/01/25 08:10:54;;;;;;;43.60;21.80;;;;;;;3.56;80.26;102093.45;129897;1277;114760;-68
2023/01/25 08:13:56;;;;;;;41.90;21.40;;;;;;;3.47;79.60;102095.15;130042;1258;115414;-69
2023/01/25 08:16:59;;;;;;;39.70;20.10;;;;;;;3.41;79.80;102093.48;129509;1269;114798;-69
2023/01/25 08:20:01;;;;;;;42.00;21.20;;;;;;;3.39;79.92;102094.37;129943;1270;114792;-69
2023/01/25 08:23:04;;;;;;;55.50;30.90;;;;;;;3.42;80.08;102092.27;129894;1259;114726;-68
2023/01/25 08:26:09;;;;;;;42.80;21.40;;;;;;;3.47;80.23;102090.73;129982;1254;114751;-67
2023/01/25 08:29:11;;;;;;;45.30;21.70;;;;;;;3.53;80.08;102092.02;129881;1275;116436;-67
2023/01/25 08:32:15;;;;;;;37.90;20.00;;;;;;;3.59;80.16;102092.77;130191;1256;115365;-64
2023/01/25 08:35:17;;;;;;;46.30;21.30;;;;;;;3.60;79.76;102092.27;130065;1259;114747;-71
2023/01/25 08:38:19;;;;;;;45.00;21.20;;;;;;;3.64;80.01;102085.39;129819;1277;115145;-73
2023/01/25 08:41:22;;;;;;;41.60;20.10;;;;;;;3.61;79.61;102085.20;130060;1259;115068;-67
2023/01/25 08:44:25;;;;;;;42.20;21.90;;;;;;;3.57;79.54;102076.14;130067;1277;127824;-67
2023/01/25 08:47:27;;;;;;;37.70;19.80;;;;;;;3.57;79.89;102068.73;130002;1258;114731;-67
2023/01/25 08:50:35;;;;;;;43.40;20.50;;;;;;;3.62;80.03;102061.35;130080;1253;114731;-67
2023/01/25 08:53:39;;;;;;;37.10;18.90;;;;;;;3.67;80.01;102055.02;129671;1262;114808;-66
2023/01/25 08:56:42;;;;;;;37.00;18.20;;;;;;;3.70;80.07;102049.04;130081;1259;114733;-68
2023/01/25 08:59:45;;;;;;;36.40;17.90;;;;;;;3.71;79.91;102045.34;130068;1259;114703;-68
2023/01/25 09:02:47;;;;;;;40.70;20.80;;;;;;;3.75;80.02;102036.18;129820;1277;128397;-67
2023/01/25 09:05:49;;;;;;;41.70;21.60;;;;;;;3.80;80.07;102038.15;130005;1277;115199;-68
2023/01/25 09:08:52;;;;;;;43.30;22.40;;;;;;;3.84;79.89;102037.46;130089;1258;114750;-67
2023/01/25 09:11:55;;;;;;;42.80;21.40;;;;;;;3.87;79.98;102037.15;130071;1272;114733;-66
2023/01/25 09:14:58;;;;;;;40.80;19.90;;;;;;;3.91;79.91;102040.87;129730;1260;114814;-65
2023/01/25 09:18:00;;;;;;;46.10;22.10;;;;;;;3.96;79.91;102043.91;129860;1259;114738;-66
2023/01/25 09:21:11;;;;;;;42.80;21.90;;;;;;;4.02;79.99;102041.83;130011;1277;114730;-67
2023/01/25 09:24:14;;;;;;;59.60;36.00;;;;;;;4.03;79.77;102042.00;130023;1262;115338;-65
2023/01/25 09:27:16;;;;;;;55.80;31.60;;;;;;;4.02;79.60;102045.18;130085;1259;114763;-65
2023/01/25 09:30:19;;;;;;;49.30;27.80;;;;;;;3.99;79.62;102041.80;130106;1259;115269;-64
2023/01/25 09:33:33;;;;;;;51.50;30.30;;;;;;;3.99;79.51;102032.42;129925;1266;114727;-64
2023/01/25 09:36:36;;;;;;;54.10;38.90;;;;;;;3.99;79.50;102025.71;129936;1272;128772;-65
2023/01/25 09:39:38;;;;;;;41.40;28.50;;;;;;;4.01;79.64;102021.85;130082;1254;114743;-67
2023/01/25 09:42:46;;;;;;;39.80;24.40;;;;;;;4.05;79.58;102013.20;129996;1275;115183;-67
2023/01/25 09:45:49;;;;;;;47.90;29.00;;;;;;;4.09;79.57;102010.92;129761;1254;114771;-68
2023/01/25 09:49:04;;;;;;;34.30;18.10;;;;;;;4.15;79.48;102015.72;129940;1261;114735;-67
2023/01/25 09:52:21;;;;;;;31.70;17.30;;;;;;;4.19;79.41;102009.91;129935;1277;128513;-66
2023/01/25 09:55:26;;;;;;;33.50;19.80;;;;;;;4.24;79.56;101999.49;129828;1257;115198;-63
2023/01/25 09:58:31;;;;;;;;;;;;;;;4.29;79.43;101992.44;129714;1260;114891;-64
2023/01/25 10:01:48;;;;;;;34.20;19.50;;;;;;;4.29;79.11;101990.67;129781;1266;114811;-66
2023/01/25 10:04:51;;;;;;;28.00;15.30;;;;;;;4.29;79.04;101983.78;129773;1262;114733;-64
2023/01/25 10:08:01;;;;;;;28.20;16.90;;;;;;;4.28;78.90;101990.31;129578;1265;127886;-64
2023/01/25 10:11:14;;;;;;;25.70;15.70;;;;;;;4.23;78.74;101989.58;129843;1257;115243;-65
2023/01/25 10:14:18;;;;;;;31.10;16.90;;;;;;;4.18;78.30;101985.31;129621;1260;114929;-65
2023/01/25 10:17:38;;;;;;;25.20;14.80;;;;;;;4.13;78.18;101980.52;129904;1256;115656;-63
2023/01/25 10:21:02;;;;;;;31.30;17.90;;;;;;;4.08;78.09;101978.21;129826;1257;114753;-67
2023/01/25 10:24:16;;;;;;;42.60;24.60;;;;;;;4.12;78.58;101976.63;129803;1279;129993;-67
2023/01/25 10:27:25;;;;;;;37.20;21.50;;;;;;;4.15;78.43;101971.86;129787;1262;115260;-67
2023/01/25 10:30:30;;;;;;;33.00;20.30;;;;;;;4.19;78.52;101963.77;129702;1263;114749;-67
2023/01/25 10:33:34;;;;;;;30.70;19.20;;;;;;;4.21;78.21;101964.48;129801;1279;114736;-67
2023/01/25 10:36:37;;;;;;;27.70;19.00;;;;;;;4.20;78.17;101957.04;129751;1260;114709;-67
2023/01/25 10:39:47;;;;;;;32.10;20.00;;;;;;;4.24;78.36;101954.58;129710;1279;114829;-65
2023/01/25 10:42:59;;;;;;;31.40;19.10;;;;;;;4.31;78.32;101955.12;129617;1263;115254;-66
2023/01/25 10:46:01;;;;;;;28.10;17.60;;;;;;;4.38;78.20;101949.48;129648;1265;114796;-66
2023/01/25 10:49:33;;;;;;;28.70;17.70;;;;;;;4.39;77.77;101951.95;129758;1261;114803;-67
2023/01/25 10:52:37;;;;;;;30.10;18.60;;;;;;;4.39;77.78;101955.15;129146;1279;115255;-66
2023/01/25 10:56:05;;;;;;;28.40;17.00;;;;;;;4.34;77.56;101950.36;129150;1276;128767;-64
2023/01/25 10:59:23;;;;;;;26.90;15.30;;;;;;;4.27;77.46;101945.03;129008;1281;115201;-66
2023/01/25 11:02:35;;;;;;;25.50;15.50;;;;;;;4.27;77.88;101940.26;129111;1270;114903;-66
2023/01/25 11:05:39;;;;;;;26.80;16.30;;;;;;;4.28;77.54;101934.96;129295;1266;114928;-64
2023/01/25 11:08:42;;;;;;;27.10;16.50;;;;;;;4.30;77.87;101927.54;129163;1286;114830;-64
2023/01/25 11:11:56;;;;;;;28.50;15.30;;;;;;;4.31;77.53;101921.70;129171;1286;114948;-65
2023/01/25 11:15:24;;;;;;;24.80;14.90;;;;;;;4.33;77.74;101916.05;129095;1286;115230;-66
2023/01/25 11:18:32;;;;;;;26.60;15.40;;;;;;;4.31;77.45;101910.02;129207;1286;114845;-66
2023/01/25 11:21:34;;;;;;;24.40;16.20;;;;;;;4.34;77.66;101902.43;129281;1277;114913;-64
2023/01/25 11:24:36;;;;;;;48.10;29.40;;;;;;;4.39;77.67;101896.95;129210;1265;116229;-67
2023/01/25 11:27:39;;;;;;;27.60;17.40;;;;;;;4.44;77.83;101891.66;129276;1268;114964;-65
2023/01/25 11:30:42;;;;;;;26.40;17.00;;;;;;;4.45;77.57;101882.64;129842;1275;114814;-67
2023/01/25 11:33:45;;;;;;;29.30;17.20;;;;;;;4.48;77.69;101877.69;129983;1270;114642;-64
2023/01/25 11:37:15;;;;;;;25.80;16.30;;;;;;;4.52;77.85;101870.08;129820;1259;114745;-63
2023/01/25 11:40:28;;;;;;;32.20;20.50;;;;;;;4.53;77.80;101855.40;129917;1259;114729;-63
2023/01/25 11:43:49;;;;;;;30.30;16.40;;;;;;;4.59;77.91;101843.02;129524;1278;114940;-65
2023/01/25 11:47:17;;;;;;;36.90;20.40;;;;;;;4.65;77.77;101833.98;129554;1278;128589;-62
2023/01/25 11:50:37;;;;;;;36.70;25.40;;;;;;;4.69;77.54;101828.50;129837;1260;114721;-66
2023/01/25 11:54:32;;;;;;;36.10;22.50;;;;;;;4.69;77.41;101826.20;129689;1265;114766;-63
2023/01/25 11:57:56;;;;;;;31.20;19.60;;;;;;;4.74;77.52;101823.52;128969;1281;114919;-64
2023/01/25 12:01:21;;;;;;;60.50;43.80;;;;;;;4.74;77.45;101818.23;129217;1286;114837;-66
2023/01/25 12:04:47;;;;;;;32.50;21.20;;;;;;;4.71;77.34;101815.94;129164;1265;128470;-65
2023/01/25 12:08:08;;;;;;;37.00;21.20;;;;;;;4.75;77.62;101806.02;129282;1268;114850;-65
2023/01/25 12:11:10;;;;;;;61.80;37.10;;;;;;;4.76;77.28;101802.13;129270;1286;115875;-64
2023/01/25 12:14:36;;;;;;;44.60;26.10;;;;;;;4.74;77.29;101798.41;129224;1286;114929;-65
2023/01/25 12:18:00;;;;;;;31.30;17.20;;;;;;;4.74;77.31;101796.98;129134;1264;114904;-65
2023/01/25 12:21:09;;;;;;;32.90;21.50;;;;;;;4.71;77.08;101787.27;129098;1286;130030;-64
2023/01/25 12:24:23;;;;;;;44.70;28.90;;;;;;;4.71;76.99;101776.11;128983;1268;116301;-68
2023/01/25 12:27:40;;;;;;;83.80;55.70;;;;;;;4.71;77.13;101773.64;129144;1269;114742;-66
2023/01/25 12:30:55;;;;;;;34.90;22.50;;;;;;;4.73;77.25;101766.73;129256;1268;115292;-64
2023/01/25 12:34:00;;;;;;;40.00;23.70;;;;;;;4.77;77.32;101761.77;129787;1278;114946;-65
2023/01/25 12:37:22;;;;;;;34.70;21.10;;;;;;;4.77;76.96;101756.10;129523;1278;127915;-64
2023/01/25 12:40:49;;;;;;;32.20;19.00;;;;;;;4.74;76.93;101751.51;129595;1278;115240;-64
2023/01/25 12:43:57;;;;;;;33.80;19.70;;;;;;;4.74;76.88;101743.73;129980;1259;114749;-66
2023/01/25 12:47:20;;;;;;;33.30;19.80;;;;;;;4.70;76.67;101746.73;129630;1262;114833;-64
2023/01/25 12:50:28;;;;;;;45.50;28.30;;;;;;;4.70;77.02;101745.69;129828;1278;114748;-63
2023/01/25 12:53:46;;;;;;;32.30;21.60;;;;;;;4.69;76.78;101737.36;129624;1254;127719;-66
2023/01/25 12:57:13;;;;;;;35.60;22.00;;;;;;;4.65;76.91;101735.25;129971;1277;116343;-66
2023/01/25 13:00:34;;;;;;;45.50;28.40;;;;;;;4.63;76.79;101732.95;129705;1259;115384;-69
2023/01/25 13:04:13;;;;;;;36.70;20.30;;;;;;;4.64;77.05;101730.64;129677;1260;114718;-64
2023/01/25 13:07:53;;;;;;;27.70;17.30;;;;;;;4.67;77.12;101732.05;129510;1265;114906;-66
2023/01/25 13:11:08;;;;;;;26.40;18.30;;;;;;;4.66;76.82;101722.67;129644;1277;127982;-63
2023/01/25 13:14:17;;;;;;;33.60;21.00;;;;;;;4.65;76.90;101719.85;129733;1277;114759;-66
2023/01/25 13:17:30;;;;;;;29.10;18.00;;;;;;;4.68;77.07;101712.23;129810;1262;114817;-65
2023/01/25 13:20:57;;;;;;;29.70;19.00;;;;;;;4.70;76.95;101714.54;129938;1259;114725;-65
2023/01/25 13:24:19;;;;;;;68.50;37.50;;;;;;;4.75;76.82;101706.38;129857;1277;114754;-66
2023/01/25 13:27:27;;;;;;;65.10;41.80;;;;;;;4.76;77.13;101701.23;129488;1271;128594;-66
2023/01/25 13:30:33;;;;;;;47.40;27.80;;;;;;;4.78;77.02;101702.66;129971;1264;115230;-63
2023/01/25 13:33:35;;;;;;;30.10;18.70;;;;;;;4.78;77.04;101697.17;129735;1262;114719;-63
2023/01/25 13:36:41;;;;;;;65.40;36.60;;;;;;;4.79;76.89;101689.20;129931;1259;114839;-64
2023/01/25 13:39:45;;;;;;;30.10;18.40;;;;;;;4.80;76.93;101681.58;129956;1259;114881;-65
2023/01/25 13:43:05;;;;;;;36.60;21.40;;;;;;;4.83;76.87;101680.86;129765;1264;127859;-62
2023/01/25 13:46:10;;;;;;;72.20;39.40;;;;;;;4.85;76.87;101677.49;130038;1264;115169;-62
2023/01/25 13:49:20;;;;;;;33.10;21.40;;;;;;;4.84;76.54;101679.80;130028;1277;114773;-66
2023/01/25 13:52:24;;;;;;;61.50;35.80;;;;;;;4.82;76.60;101681.92;130014;1260;114712;-63
2023/01/25 13:55:28;;;;;;;62.50;38.90;;;;;;;4.82;76.63;101678.20;129722;1277;115152;-64
2023/01/25 13:58:36;;;;;;;106.50;57.90;;;;;;;4.82;76.68;101678.73;129908;1278;127430;-65